PHL weather

Philadelphia International Airport
Philadelphia, Pennsylvania, United States

Public forecast

Using degrees Fahrenheit for public forecast. Weather courtesy of forecast.io.

METAR (pilot weather report)

Retrieved 2018/01/20 15:54 UTC (28 minutes ago):

KPHL 201554Z 24013KT 10SM BKN250 09/M03 A2996 RMK AO2 SLP146 T00941033 $

TAF (pilot weather forecast)

Retrieved 2018/01/20 12:27 UTC (4 hours ago):

TAF KPHL 201120Z 2012/2118 25008KT P6SM FEW250 FM201700 26012G19KT P6SM SKC FM202100 26008KT P6SM SKC FM210100 27005KT P6SM SCT150 BKN250 FM211400 33005KT P6SM BKN150 BKN250